Terminal Aerodrome Forecast
Issued by NWS Billings, MT

Home | Current Version | Previous Version | Graphics & Text | Print | Product List | Glossary On
Versions: 1 2 3 4 5 6 7 8 9 10 11 12 13 14 15 16 17 18 19 20 21 22
000
FTUS45 KBYZ 272330
TAFMLS
TAF
KMLS 272330Z 2800/2824 15008KT P6SM SCT200
     FM280300 31008KT P6SM SCT200
     FM280700 31008KT P6SM SCT060 BKN100
     FM281100 30008KT P6SM BKN040
     FM281700 30008KT P6SM SCT050=

USA.gov is the U.S. government's official web portal to all federal, state and local government web resources and services.